createdAt,value
2022-09-28T04:02:35.558Z,9.08
2022-09-28T04:05:02.389Z,9.10
2022-09-28T04:07:31.020Z,9.19
2022-09-28T04:09:58.443Z,9.27
2022-09-28T04:12:25.019Z,9.29
2022-09-28T04:14:51.617Z,9.23
2022-09-28T04:17:18.432Z,9.23
2022-09-28T04:19:45.001Z,9.29
2022-09-28T04:22:11.527Z,9.34
2022-09-28T04:24:38.311Z,9.29
2022-09-28T04:27:25.054Z,9.23
2022-09-28T04:29:59.975Z,9.27
2022-09-28T04:32:27.027Z,9.30
2022-09-28T04:34:57.000Z,9.31
2022-09-28T04:37:23.635Z,9.40
2022-09-28T04:39:53.265Z,9.41
2022-09-28T04:42:20.327Z,9.54
2022-09-28T04:44:49.641Z,9.62
2022-09-28T04:47:16.131Z,9.60
2022-09-28T04:49:43.227Z,9.61
2022-09-28T04:52:15.821Z,9.60
2022-09-28T04:54:44.682Z,9.57
2022-09-28T04:57:11.239Z,9.55
2022-09-28T04:59:37.795Z,9.51
2022-09-28T05:02:05.322Z,9.39
2022-09-28T05:04:31.971Z,9.34
2022-09-28T05:06:58.664Z,9.40
2022-09-28T05:09:25.395Z,9.34
2022-09-28T05:11:54.921Z,9.34
2022-09-28T05:14:24.735Z,9.37
2022-09-28T05:16:51.519Z,9.40
2022-09-28T05:19:18.495Z,9.43
2022-09-28T05:21:45.889Z,9.37
2022-09-28T05:24:12.793Z,9.29
2022-09-28T05:26:40.205Z,9.30
2022-09-28T05:29:06.707Z,9.27
2022-09-28T05:31:33.288Z,9.19
2022-09-28T05:33:59.798Z,9.22
2022-09-28T05:36:27.428Z,9.24
2022-09-28T05:38:54.755Z,9.31
2022-09-28T05:41:21.341Z,9.44
2022-09-28T05:43:47.912Z,9.46
2022-09-28T05:46:14.710Z,9.44
2022-09-28T05:48:41.378Z,9.51
2022-09-28T05:51:10.403Z,9.54
2022-09-28T05:53:37.040Z,9.67
2022-09-28T05:56:03.695Z,9.61
2022-09-28T05:58:30.401Z,9.73
2022-09-28T06:00:57.938Z,9.70
2022-09-28T06:03:25.376Z,9.64
2022-09-28T06:05:51.983Z,9.61
2022-09-28T06:08:18.550Z,9.57
2022-09-28T06:10:45.523Z,9.51
2022-09-28T06:13:12.203Z,9.50
2022-09-28T06:15:39.230Z,9.58
2022-09-28T06:18:09.427Z,9.60
2022-09-28T06:20:42.468Z,9.73
2022-09-28T06:23:10.849Z,9.71
2022-09-28T06:25:38.148Z,9.74
2022-09-28T06:28:14.989Z,9.81
2022-09-28T06:30:43.059Z,9.81
2022-09-28T06:33:12.739Z,9.89
2022-09-28T06:35:40.707Z,9.92
2022-09-28T06:38:11.089Z,10.02
2022-09-28T06:40:39.109Z,10.22
2022-09-28T06:43:11.308Z,10.28
2022-09-28T06:45:38.886Z,10.25
2022-09-28T06:48:06.215Z,10.29
2022-09-28T06:50:40.266Z,10.30
2022-09-28T06:53:09.469Z,10.49
2022-09-28T06:55:42.165Z,10.42
2022-09-28T06:58:13.697Z,10.57
2022-09-28T07:00:41.240Z,10.70
2022-09-28T07:03:12.275Z,10.64
2022-09-28T07:05:42.617Z,10.55
2022-09-28T07:08:09.273Z,10.47
2022-09-28T07:10:36.707Z,10.83
2022-09-28T07:13:05.789Z,10.78
2022-09-28T07:15:33.175Z,11.12
2022-09-28T07:18:05.314Z,12.17
2022-09-28T07:20:43.817Z,13.53
2022-09-28T07:23:19.297Z,14.46
2022-09-28T07:25:47.934Z,14.85
2022-09-28T07:28:15.356Z,15.26
2022-09-28T07:30:43.345Z,15.26
2022-09-28T07:33:12.656Z,15.73
2022-09-28T07:35:39.502Z,15.90
2022-09-28T07:38:07.524Z,16.24
2022-09-28T07:40:54.225Z,16.22
2022-09-28T07:43:21.440Z,16.44
2022-09-28T07:45:49.590Z,16.99
2022-09-28T07:48:17.899Z,16.91
2022-09-28T07:51:00.178Z,17.06
2022-09-28T07:53:27.162Z,17.59
2022-09-28T07:55:55.684Z,17.73
2022-09-28T07:58:23.147Z,17.71
2022-09-28T08:00:50.587Z,17.76
2022-09-28T08:03:18.671Z,18.04
2022-09-28T08:05:47.571Z,18.22
2022-09-28T08:08:24.347Z,18.64
2022-09-28T08:13:23.474Z,19.05
2022-09-28T08:15:54.644Z,18.89
2022-09-28T08:18:23.425Z,19.10
2022-09-28T08:21:11.444Z,18.99
2022-09-28T08:23:38.563Z,18.95
2022-09-28T08:26:05.214Z,19.33
2022-09-28T08:28:31.734Z,19.77
2022-09-28T08:31:01.605Z,19.74
2022-09-28T08:33:28.690Z,19.85
2022-09-28T08:35:59.861Z,20.40
2022-09-28T08:38:27.807Z,21.24
2022-09-28T08:41:12.905Z,21.24
2022-09-28T08:44:00.816Z,21.75
2022-09-28T08:46:37.404Z,21.51
2022-09-28T08:49:25.013Z,21.45
2022-09-28T08:52:03.390Z,21.10
2022-09-28T08:54:39.045Z,21.03
2022-09-28T08:57:14.581Z,20.04
2022-09-28T08:59:54.440Z,20.74
2022-09-28T09:02:27.327Z,20.60
2022-09-28T09:04:54.669Z,21.37
2022-09-28T09:07:27.558Z,20.90
2022-09-28T09:10:18.328Z,21.25
2022-09-28T09:13:20.311Z,21.61
2022-09-28T09:15:55.160Z,21.53
2022-09-28T09:18:44.050Z,21.30
2022-09-28T09:21:48.772Z,21.14
2022-09-28T09:24:34.766Z,21.52
2022-09-28T09:27:24.228Z,22.37
2022-09-28T09:30:06.709Z,21.83
2022-09-28T09:32:33.278Z,22.20
2022-09-28T09:35:06.249Z,22.58
2022-09-28T09:37:48.048Z,22.61
2022-09-28T09:40:26.778Z,22.48
2022-09-28T09:43:31.788Z,22.96
2022-09-28T09:46:19.924Z,22.67
2022-09-28T09:48:58.608Z,21.17
2022-09-28T09:51:36.546Z,22.45
2022-09-28T09:54:18.528Z,23.74
2022-09-28T09:56:55.039Z,24.42
2022-09-28T09:59:35.056Z,23.73
2022-09-28T10:02:11.754Z,22.89
2022-09-28T10:04:46.698Z,22.00
2022-09-28T10:07:23.488Z,22.48
2022-09-28T10:09:52.843Z,21.96
2022-09-28T10:12:22.113Z,22.47
2022-09-28T10:14:49.546Z,23.42
2022-09-28T10:17:19.759Z,23.89
2022-09-28T10:19:47.262Z,24.04
2022-09-28T10:22:17.985Z,22.47
2022-09-28T10:24:51.042Z,23.92
2022-09-28T10:27:22.954Z,21.41
2022-09-28T10:29:57.091Z,21.97
2022-09-28T10:32:26.543Z,21.76
2022-09-28T10:35:06.433Z,19.66
2022-09-28T10:37:32.960Z,18.62
2022-09-28T10:39:59.500Z,17.92
2022-09-28T10:42:29.771Z,17.45
2022-09-28T10:45:15.453Z,17.25
2022-09-28T10:47:45.244Z,17.34
2022-09-28T10:50:25.090Z,18.17
2022-09-28T10:52:51.650Z,20.33
2022-09-28T10:55:21.253Z,20.54
2022-09-28T10:57:48.316Z,21.28
2022-09-28T11:00:31.910Z,22.36
2022-09-28T11:02:59.676Z,23.34
2022-09-28T11:05:27.979Z,22.98
2022-09-28T11:07:57.006Z,21.41
2022-09-28T11:10:26.338Z,21.89
2022-09-28T11:12:54.329Z,22.68
2022-09-28T11:15:26.037Z,23.58
2022-09-28T11:17:52.713Z,24.28
2022-09-28T11:20:27.945Z,24.60
2022-09-28T11:23:00.355Z,25.06
2022-09-28T11:25:32.125Z,24.63
2022-09-28T11:28:05.779Z,25.18
2022-09-28T11:30:42.489Z,24.25
2022-09-28T11:33:28.620Z,24.66
2022-09-28T11:36:13.558Z,24.55
2022-09-28T11:39:11.635Z,24.42
2022-09-28T11:41:38.216Z,24.40
2022-09-28T11:44:13.850Z,24.87
2022-09-28T11:47:04.806Z,24.95
2022-09-28T11:49:45.532Z,25.00
2022-09-28T11:52:44.280Z,24.53
2022-09-28T11:55:15.645Z,23.94
2022-09-28T11:57:48.821Z,22.62
2022-09-28T12:00:22.430Z,20.43
2022-09-28T12:02:58.043Z,20.66
2022-09-28T12:05:39.096Z,23.02
2022-09-28T12:08:27.589Z,25.01
2022-09-28T12:11:22.004Z,22.31
2022-09-28T12:13:52.763Z,23.26
2022-09-28T12:17:00.849Z,24.50
2022-09-28T12:19:25.806Z,22.52
2022-09-28T12:21:56.805Z,20.77
2022-09-28T12:24:32.255Z,19.33
2022-09-28T12:27:07.658Z,18.26
2022-09-28T12:29:44.155Z,18.02
2022-09-28T12:32:40.318Z,17.73
2022-09-28T12:35:17.223Z,17.54
2022-09-28T12:37:56.450Z,17.44
2022-09-28T12:41:13.116Z,17.72
2022-09-28T12:44:08.874Z,18.18
2022-09-28T12:46:59.705Z,17.92
2022-09-28T12:50:45.707Z,17.39
2022-09-28T12:55:28.314Z,16.80
2022-09-28T12:58:18.295Z,16.75
2022-09-28T13:01:27.473Z,16.79
2022-09-28T13:04:00.153Z,17.17
2022-09-28T13:06:42.702Z,17.11
2022-09-28T13:09:20.390Z,16.94
2022-09-28T13:12:26.719Z,16.73
2022-09-28T13:15:16.519Z,16.72
2022-09-28T13:17:56.350Z,16.41
2022-09-28T13:20:39.790Z,16.53
2022-09-28T13:23:25.577Z,16.63
2022-09-28T13:26:00.490Z,16.53
2022-09-28T13:28:28.346Z,16.48
2022-09-28T13:33:36.921Z,15.97
2022-09-28T13:36:26.557Z,15.77
2022-09-28T13:38:54.904Z,15.81
2022-09-28T13:41:28.992Z,15.64
2022-09-28T13:44:10.872Z,15.03
2022-09-28T13:47:01.938Z,14.96
2022-09-28T13:49:28.471Z,14.75
2022-09-28T13:52:13.663Z,14.63
2022-09-28T13:54:50.983Z,14.88
2022-09-28T13:57:21.390Z,15.90
2022-09-28T13:59:58.884Z,15.93
2022-09-28T14:02:34.789Z,16.17
2022-09-28T14:05:06.912Z,16.49
2022-09-28T14:07:36.426Z,16.18
2022-09-28T14:10:20.932Z,17.73
2022-09-28T14:12:52.116Z,18.95
2022-09-28T14:15:30.749Z,19.75
2022-09-28T14:18:23.507Z,19.99
2022-09-28T14:21:07.250Z,20.05
2022-09-28T14:23:50.691Z,19.75
2022-09-28T14:26:17.220Z,19.31
2022-09-28T14:29:28.392Z,17.99
2022-09-28T14:31:58.265Z,17.32
2022-09-28T14:34:34.298Z,17.41
2022-09-28T14:37:23.890Z,17.85
2022-09-28T14:40:09.794Z,18.75
2022-09-28T14:42:36.453Z,18.33
2022-09-28T14:45:06.331Z,18.60
2022-09-28T14:47:39.251Z,19.19
2022-09-28T14:50:26.557Z,19.10
2022-09-28T14:52:55.051Z,19.92
2022-09-28T14:55:31.128Z,20.93
2022-09-28T14:57:59.108Z,21.48
2022-09-28T15:00:30.498Z,21.00
2022-09-28T15:03:03.220Z,20.54
2022-09-28T15:05:44.083Z,19.89
2022-09-28T15:08:11.938Z,19.85
2022-09-28T15:10:45.495Z,19.41
2022-09-28T15:13:21.405Z,19.99
2022-09-28T15:15:51.893Z,19.36
2022-09-28T15:18:46.371Z,19.08
2022-09-28T15:21:13.879Z,19.18
2022-09-28T15:23:43.313Z,18.78
2022-09-28T15:26:27.431Z,18.95
2022-09-28T15:28:54.852Z,18.85
2022-09-28T15:31:25.608Z,18.43
2022-09-28T15:34:11.374Z,18.45
2022-09-28T15:36:41.223Z,17.85
2022-09-28T15:39:34.196Z,17.15
2022-09-28T15:42:01.141Z,16.75
2022-09-28T15:44:44.556Z,16.44
2022-09-28T15:47:16.834Z,16.41
2022-09-28T15:50:04.700Z,15.80
2022-09-28T15:52:39.827Z,15.46
2022-09-28T15:55:37.794Z,15.33
2022-09-28T15:58:08.981Z,15.46
2022-09-28T16:00:35.839Z,15.33
2022-09-28T16:03:05.517Z,15.19
2022-09-28T16:05:35.794Z,15.06
2022-09-28T16:08:04.316Z,14.71
2022-09-28T16:10:33.682Z,14.53
2022-09-28T16:13:26.625Z,14.47
2022-09-28T16:16:00.397Z,14.40
2022-09-28T16:18:30.202Z,14.30
2022-09-28T16:21:34.667Z,14.19
2022-09-28T16:24:01.304Z,14.15
2022-09-28T16:26:33.313Z,14.08
2022-09-28T16:29:02.033Z,13.98
2022-09-28T16:31:34.428Z,13.83
2022-09-28T16:34:16.443Z,13.74
2022-09-28T16:36:45.543Z,13.69
2022-09-28T16:39:13.528Z,13.61
2022-09-28T16:41:44.180Z,13.51
2022-09-28T16:44:27.054Z,13.44
2022-09-28T16:46:57.766Z,13.40
2022-09-28T16:49:25.568Z,13.38
2022-09-28T16:51:52.868Z,13.31
2022-09-28T16:54:40.777Z,13.30
2022-09-28T16:57:10.489Z,13.21
2022-09-28T16:59:39.849Z,13.21
2022-09-28T17:02:46.249Z,13.14
2022-09-28T17:05:15.805Z,13.03
2022-09-28T17:07:44.110Z,12.99
2022-09-28T17:10:26.422Z,12.92
2022-09-28T17:12:52.987Z,13.03
2022-09-28T17:15:19.684Z,12.99
2022-09-28T17:17:47.200Z,12.85
2022-09-28T17:20:28.132Z,12.85
2022-09-28T17:22:54.697Z,12.72
2022-09-28T17:25:24.045Z,12.75
2022-09-28T17:27:51.804Z,12.78
2022-09-28T17:30:20.312Z,12.72
2022-09-28T17:32:50.139Z,12.73
2022-09-28T17:35:25.904Z,12.63
2022-09-28T17:37:53.249Z,12.61
2022-09-28T17:40:23.122Z,12.58
2022-09-28T17:42:49.711Z,12.63
2022-09-28T17:45:17.098Z,12.69
2022-09-28T17:47:44.450Z,12.66
2022-09-28T17:50:16.973Z,12.53
2022-09-28T17:52:43.456Z,12.58
2022-09-28T17:55:09.992Z,12.62
2022-09-28T17:57:36.519Z,12.53
2022-09-28T18:00:03.857Z,12.65
2022-09-28T18:02:30.626Z,12.51
2022-09-28T18:04:57.575Z,12.28
2022-09-28T18:07:24.343Z,12.18
2022-09-28T18:09:56.767Z,12.16
2022-09-28T18:12:25.095Z,11.97
2022-09-28T18:14:52.196Z,11.86
2022-09-28T18:17:18.767Z,11.77
2022-09-28T18:19:45.350Z,11.65
2022-09-28T18:22:11.858Z,11.59
2022-09-28T18:24:39.187Z,11.53
2022-09-28T18:27:05.732Z,11.43
2022-09-28T18:29:33.454Z,11.36
2022-09-28T18:32:00.578Z,11.35
2022-09-28T18:34:27.101Z,11.31
2022-09-28T18:36:53.716Z,11.24
2022-09-28T18:39:20.594Z,11.18
2022-09-28T18:41:47.211Z,11.15
2022-09-28T18:44:13.769Z,11.12
2022-09-28T18:46:42.635Z,11.11
2022-09-28T18:49:09.261Z,11.05
2022-09-28T18:51:35.767Z,10.94
2022-09-28T18:54:07.186Z,10.90
2022-09-28T18:56:37.176Z,10.78
2022-09-28T18:59:11.899Z,10.78
2022-09-28T19:01:38.889Z,10.74
2022-09-28T19:04:07.932Z,10.76
2022-09-28T19:06:37.055Z,10.70
2022-09-28T19:09:04.032Z,10.66
2022-09-28T19:11:30.776Z,10.74
2022-09-28T19:13:57.324Z,10.67
2022-09-28T19:16:28.955Z,10.60
2022-09-28T19:18:57.525Z,10.59
2022-09-28T19:21:24.602Z,10.52
2022-09-28T19:23:53.631Z,10.52
2022-09-28T19:26:27.965Z,10.52
2022-09-28T19:28:56.390Z,10.55
2022-09-28T19:31:23.209Z,10.39
2022-09-28T19:33:50.487Z,10.33
2022-09-28T19:36:23.717Z,10.29
2022-09-28T19:38:52.345Z,10.30
2022-09-28T19:41:43.048Z,10.23
2022-09-28T19:44:15.827Z,10.22
2022-09-28T19:46:42.639Z,10.20
2022-09-28T19:49:19.301Z,10.20
2022-09-28T19:52:10.928Z,10.16
2022-09-28T19:54:36.777Z,10.20
2022-09-28T19:57:08.971Z,10.16
2022-09-28T19:59:37.340Z,10.09
2022-09-28T20:02:05.497Z,10.06
2022-09-28T20:04:32.007Z,10.09
2022-09-28T20:06:58.524Z,10.05
2022-09-28T20:09:25.119Z,10.03
2022-09-28T20:11:51.932Z,9.98
2022-09-28T20:14:19.198Z,9.98
2022-09-28T20:16:48.532Z,9.94
2022-09-28T20:19:15.311Z,9.89
2022-09-28T20:21:41.949Z,9.88
2022-09-28T20:24:11.423Z,9.85
2022-09-28T20:26:37.997Z,9.75
2022-09-28T20:29:06.196Z,9.70
2022-09-28T20:31:33.383Z,9.70
2022-09-28T20:33:59.972Z,9.64
2022-09-28T20:36:26.697Z,9.62
2022-09-28T20:38:54.711Z,9.67
2022-09-28T20:41:23.882Z,9.65
2022-09-28T20:43:55.509Z,9.70
2022-09-28T20:46:22.785Z,9.67
2022-09-28T20:48:54.923Z,9.68
2022-09-28T20:51:22.164Z,9.58
2022-09-28T20:53:51.556Z,9.55
2022-09-28T20:56:21.746Z,9.54
2022-09-28T20:58:52.369Z,9.60
2022-09-28T21:01:21.332Z,9.60
2022-09-28T21:03:50.786Z,9.65
2022-09-28T21:06:19.140Z,9.60
2022-09-28T21:08:46.409Z,9.55
2022-09-28T21:11:14.133Z,9.52
2022-09-28T21:13:42.912Z,9.54
2022-09-28T21:16:11.538Z,9.55
2022-09-28T21:18:39.105Z,9.50
2022-09-28T21:21:11.666Z,9.50
2022-09-28T21:23:39.053Z,9.51
2022-09-28T21:26:11.719Z,9.51
2022-09-28T21:28:39.255Z,9.54
2022-09-28T21:31:08.451Z,9.54
2022-09-28T21:33:35.193Z,9.52
2022-09-28T21:36:02.662Z,9.47
2022-09-28T21:38:30.080Z,9.40
2022-09-28T21:40:58.244Z,9.44
2022-09-28T21:43:26.323Z,9.44
2022-09-28T21:45:54.642Z,9.44
2022-09-28T21:48:23.126Z,9.41
2022-09-28T21:51:02.677Z,9.41
2022-09-28T21:53:32.411Z,9.48
2022-09-28T21:56:00.191Z,9.47
2022-09-28T21:58:32.088Z,9.41
